sensor_id;sensor_type;location;lat;lon;timestamp;P1;durP1;ratioP1;P2;durP2;ratioP2
24559;SDS011;12727;49.934;8.656;2023-09-19T00:00:26;5.28;;;1.10;;
24559;SDS011;12727;49.934;8.656;2023-09-19T00:02:56;4.55;;;1.33;;
24559;SDS011;12727;49.934;8.656;2023-09-19T00:05:24;2.92;;;1.05;;
24559;SDS011;12727;49.934;8.656;2023-09-19T00:07:52;3.15;;;1.08;;
24559;SDS011;12727;49.934;8.656;2023-09-19T00:10:20;2.72;;;1.00;;
24559;SDS011;12727;49.934;8.656;2023-09-19T00:12:47;3.38;;;0.90;;
24559;SDS011;12727;49.934;8.656;2023-09-19T00:15:12;4.90;;;1.08;;
24559;SDS011;12727;49.934;8.656;2023-09-19T00:17:38;3.47;;;1.10;;
24559;SDS011;12727;49.934;8.656;2023-09-19T00:20:05;4.68;;;1.00;;
24559;SDS011;12727;49.934;8.656;2023-09-19T00:22:40;6.15;;;1.60;;
24559;SDS011;12727;49.934;8.656;2023-09-19T00:25:09;2.63;;;0.93;;
24559;SDS011;12727;49.934;8.656;2023-09-19T00:27:36;2.45;;;1.15;;
24559;SDS011;12727;49.934;8.656;2023-09-19T00:30:06;2.03;;;1.02;;
24559;SDS011;12727;49.934;8.656;2023-09-19T00:32:39;3.13;;;1.30;;
24559;SDS011;12727;49.934;8.656;2023-09-19T00:35:05;3.03;;;1.35;;
24559;SDS011;12727;49.934;8.656;2023-09-19T00:37:33;4.03;;;1.20;;
24559;SDS011;12727;49.934;8.656;2023-09-19T00:39:59;3.75;;;1.42;;
24559;SDS011;12727;49.934;8.656;2023-09-19T00:42:24;9.23;;;1.15;;
24559;SDS011;12727;49.934;8.656;2023-09-19T00:44:50;3.47;;;1.50;;
24559;SDS011;12727;49.934;8.656;2023-09-19T00:47:17;1.50;;;0.90;;
24559;SDS011;12727;49.934;8.656;2023-09-19T00:49:44;2.65;;;1.00;;
24559;SDS011;12727;49.934;8.656;2023-09-19T00:52:17;3.75;;;1.40;;
24559;SDS011;12727;49.934;8.656;2023-09-19T00:54:47;4.10;;;1.35;;
24559;SDS011;12727;49.934;8.656;2023-09-19T00:57:13;3.92;;;1.30;;
24559;SDS011;12727;49.934;8.656;2023-09-19T00:59:40;4.45;;;1.30;;
24559;SDS011;12727;49.934;8.656;2023-09-19T01:02:07;4.47;;;1.83;;
24559;SDS011;12727;49.934;8.656;2023-09-19T01:04:33;2.47;;;1.17;;
24559;SDS011;12727;49.934;8.656;2023-09-19T01:06:59;2.70;;;1.20;;
24559;SDS011;12727;49.934;8.656;2023-09-19T01:09:25;3.72;;;1.30;;
24559;SDS011;12727;49.934;8.656;2023-09-19T01:11:52;5.38;;;1.17;;
24559;SDS011;12727;49.934;8.656;2023-09-19T01:14:31;4.47;;;1.38;;
24559;SDS011;12727;49.934;8.656;2023-09-19T01:17:14;3.53;;;1.30;;
24559;SDS011;12727;49.934;8.656;2023-09-19T01:20:24;3.53;;;1.15;;
24559;SDS011;12727;49.934;8.656;2023-09-19T01:28:45;3.70;;;1.50;;
24559;SDS011;12727;49.934;8.656;2023-09-19T01:31:21;3.92;;;1.50;;
24559;SDS011;12727;49.934;8.656;2023-09-19T01:33:58;4.88;;;1.40;;
24559;SDS011;12727;49.934;8.656;2023-09-19T01:36:29;3.67;;;1.55;;
24559;SDS011;12727;49.934;8.656;2023-09-19T01:38:59;2.53;;;1.15;;
24559;SDS011;12727;49.934;8.656;2023-09-19T01:41:37;4.82;;;1.38;;
24559;SDS011;12727;49.934;8.656;2023-09-19T01:44:29;3.17;;;1.35;;
24559;SDS011;12727;49.934;8.656;2023-09-19T01:47:15;5.07;;;1.40;;
24559;SDS011;12727;49.934;8.656;2023-09-19T01:50:11;4.03;;;1.60;;
24559;SDS011;12727;49.934;8.656;2023-09-19T01:52:54;4.82;;;1.45;;
24559;SDS011;12727;49.934;8.656;2023-09-19T01:55:23;3.95;;;1.95;;
24559;SDS011;12727;49.934;8.656;2023-09-19T02:00:48;5.15;;;1.90;;
24559;SDS011;12727;49.934;8.656;2023-09-19T02:03:16;3.83;;;1.67;;
24559;SDS011;12727;49.934;8.656;2023-09-19T02:05:49;5.03;;;1.60;;
24559;SDS011;12727;49.934;8.656;2023-09-19T02:08:19;2.72;;;1.38;;
24559;SDS011;12727;49.934;8.656;2023-09-19T02:10:48;4.70;;;1.85;;
24559;SDS011;12727;49.934;8.656;2023-09-19T02:13:17;5.63;;;1.73;;
24559;SDS011;12727;49.934;8.656;2023-09-19T02:15:44;3.47;;;1.60;;
24559;SDS011;12727;49.934;8.656;2023-09-19T02:18:11;4.97;;;1.63;;
24559;SDS011;12727;49.934;8.656;2023-09-19T02:20:40;3.38;;;1.90;;
24559;SDS011;12727;49.934;8.656;2023-09-19T02:23:07;6.10;;;1.90;;
24559;SDS011;12727;49.934;8.656;2023-09-19T02:25:33;3.70;;;1.98;;
24559;SDS011;12727;49.934;8.656;2023-09-19T02:28:00;4.78;;;1.90;;
24559;SDS011;12727;49.934;8.656;2023-09-19T02:30:29;4.15;;;1.88;;
24559;SDS011;12727;49.934;8.656;2023-09-19T02:32:55;3.58;;;2.08;;
24559;SDS011;12727;49.934;8.656;2023-09-19T02:35:21;3.00;;;1.70;;
24559;SDS011;12727;49.934;8.656;2023-09-19T02:37:50;5.72;;;1.90;;
24559;SDS011;12727;49.934;8.656;2023-09-19T02:40:15;4.43;;;1.73;;
24559;SDS011;12727;49.934;8.656;2023-09-19T02:42:47;6.97;;;1.92;;
24559;SDS011;12727;49.934;8.656;2023-09-19T02:45:17;6.25;;;1.83;;
24559;SDS011;12727;49.934;8.656;2023-09-19T02:47:44;5.60;;;1.90;;
24559;SDS011;12727;49.934;8.656;2023-09-19T02:50:11;3.63;;;2.13;;
24559;SDS011;12727;49.934;8.656;2023-09-19T02:52:37;4.00;;;1.77;;
24559;SDS011;12727;49.934;8.656;2023-09-19T02:55:03;3.63;;;1.80;;
24559;SDS011;12727;49.934;8.656;2023-09-19T02:57:31;3.95;;;2.13;;
24559;SDS011;12727;49.934;8.656;2023-09-19T02:59:58;4.40;;;2.00;;
24559;SDS011;12727;49.934;8.656;2023-09-19T03:02:25;4.57;;;2.25;;
24559;SDS011;12727;49.934;8.656;2023-09-19T03:04:52;5.05;;;2.05;;
24559;SDS011;12727;49.934;8.656;2023-09-19T03:07:18;2.83;;;1.80;;
24559;SDS011;12727;49.934;8.656;2023-09-19T03:09:44;3.10;;;1.90;;
24559;SDS011;12727;49.934;8.656;2023-09-19T03:12:10;5.82;;;1.92;;
24559;SDS011;12727;49.934;8.656;2023-09-19T03:14:36;6.13;;;2.13;;
24559;SDS011;12727;49.934;8.656;2023-09-19T03:17:02;2.67;;;1.90;;
24559;SDS011;12727;49.934;8.656;2023-09-19T03:19:30;4.47;;;2.33;;
24559;SDS011;12727;49.934;8.656;2023-09-19T03:21:58;6.13;;;2.13;;
24559;SDS011;12727;49.934;8.656;2023-09-19T03:24:24;3.67;;;1.80;;
24559;SDS011;12727;49.934;8.656;2023-09-19T03:26:50;3.17;;;1.92;;
24559;SDS011;12727;49.934;8.656;2023-09-19T03:29:15;6.85;;;2.17;;
24559;SDS011;12727;49.934;8.656;2023-09-19T03:31:42;4.22;;;2.15;;
24559;SDS011;12727;49.934;8.656;2023-09-19T03:34:07;5.38;;;2.10;;
24559;SDS011;12727;49.934;8.656;2023-09-19T03:36:34;3.58;;;2.13;;
24559;SDS011;12727;49.934;8.656;2023-09-19T03:39:00;8.50;;;2.15;;
24559;SDS011;12727;49.934;8.656;2023-09-19T03:41:25;5.85;;;2.17;;
24559;SDS011;12727;49.934;8.656;2023-09-19T03:43:51;5.50;;;2.58;;
24559;SDS011;12727;49.934;8.656;2023-09-19T03:46:18;5.18;;;2.13;;
24559;SDS011;12727;49.934;8.656;2023-09-19T03:48:43;6.45;;;2.10;;
24559;SDS011;12727;49.934;8.656;2023-09-19T03:51:09;5.95;;;2.53;;
24559;SDS011;12727;49.934;8.656;2023-09-19T03:53:35;5.65;;;2.40;;
24559;SDS011;12727;49.934;8.656;2023-09-19T03:56:01;5.22;;;1.95;;
24559;SDS011;12727;49.934;8.656;2023-09-19T03:58:27;4.85;;;2.20;;
24559;SDS011;12727;49.934;8.656;2023-09-19T04:00:56;7.05;;;3.03;;
24559;SDS011;12727;49.934;8.656;2023-09-19T04:03:22;5.03;;;2.50;;
24559;SDS011;12727;49.934;8.656;2023-09-19T04:05:49;5.38;;;2.50;;
24559;SDS011;12727;49.934;8.656;2023-09-19T04:08:15;6.13;;;2.83;;
24559;SDS011;12727;49.934;8.656;2023-09-19T04:10:43;4.95;;;3.00;;
24559;SDS011;12727;49.934;8.656;2023-09-19T04:13:10;6.38;;;2.70;;
24559;SDS011;12727;49.934;8.656;2023-09-19T04:15:43;5.25;;;2.78;;
24559;SDS011;12727;49.934;8.656;2023-09-19T04:18:11;5.68;;;2.80;;
24559;SDS011;12727;49.934;8.656;2023-09-19T04:20:37;4.88;;;2.95;;
24559;SDS011;12727;49.934;8.656;2023-09-19T04:23:03;7.20;;;2.70;;
24559;SDS011;12727;49.934;8.656;2023-09-19T04:25:30;5.40;;;3.13;;
24559;SDS011;12727;49.934;8.656;2023-09-19T04:27:56;6.53;;;3.00;;
24559;SDS011;12727;49.934;8.656;2023-09-19T04:30:22;9.45;;;3.25;;
24559;SDS011;12727;49.934;8.656;2023-09-19T04:32:48;5.90;;;3.05;;
24559;SDS011;12727;49.934;8.656;2023-09-19T04:35:15;4.20;;;2.78;;
24559;SDS011;12727;49.934;8.656;2023-09-19T04:37:41;7.55;;;3.10;;
24559;SDS011;12727;49.934;8.656;2023-09-19T04:40:10;4.90;;;3.30;;
24559;SDS011;12727;49.934;8.656;2023-09-19T04:42:37;7.13;;;2.97;;
24559;SDS011;12727;49.934;8.656;2023-09-19T04:45:04;5.95;;;2.97;;
24559;SDS011;12727;49.934;8.656;2023-09-19T04:47:30;8.57;;;3.38;;
24559;SDS011;12727;49.934;8.656;2023-09-19T04:49:55;4.95;;;2.72;;
24559;SDS011;12727;49.934;8.656;2023-09-19T04:52:23;6.80;;;3.15;;
24559;SDS011;12727;49.934;8.656;2023-09-19T04:54:49;5.80;;;2.80;;
24559;SDS011;12727;49.934;8.656;2023-09-19T04:57:15;5.03;;;3.35;;
24559;SDS011;12727;49.934;8.656;2023-09-19T04:59:41;7.93;;;2.72;;
24559;SDS011;12727;49.934;8.656;2023-09-19T05:02:06;7.35;;;2.70;;
24559;SDS011;12727;49.934;8.656;2023-09-19T05:04:35;4.20;;;2.58;;
24559;SDS011;12727;49.934;8.656;2023-09-19T05:07:00;4.00;;;2.90;;
24559;SDS011;12727;49.934;8.656;2023-09-19T05:09:28;5.15;;;2.65;;
24559;SDS011;12727;49.934;8.656;2023-09-19T05:12:11;5.38;;;2.72;;
24559;SDS011;12727;49.934;8.656;2023-09-19T05:15:08;6.43;;;2.70;;
24559;SDS011;12727;49.934;8.656;2023-09-19T05:17:34;5.93;;;2.58;;
24559;SDS011;12727;49.934;8.656;2023-09-19T05:20:03;6.25;;;2.70;;
24559;SDS011;12727;49.934;8.656;2023-09-19T05:22:41;6.57;;;2.95;;
24559;SDS011;12727;49.934;8.656;2023-09-19T05:25:08;7.07;;;2.75;;
24559;SDS011;12727;49.934;8.656;2023-09-19T05:27:53;7.93;;;3.00;;
24559;SDS011;12727;49.934;8.656;2023-09-19T05:30:18;8.40;;;3.72;;
24559;SDS011;12727;49.934;8.656;2023-09-19T05:32:45;4.45;;;3.30;;
24559;SDS011;12727;49.934;8.656;2023-09-19T05:35:10;7.00;;;3.72;;
24559;SDS011;12727;49.934;8.656;2023-09-19T05:37:38;5.72;;;3.92;;
24559;SDS011;12727;49.934;8.656;2023-09-19T05:40:04;5.28;;;4.20;;
24559;SDS011;12727;49.934;8.656;2023-09-19T05:42:34;6.63;;;4.30;;
24559;SDS011;12727;49.934;8.656;2023-09-19T05:45:00;8.55;;;4.25;;
24559;SDS011;12727;49.934;8.656;2023-09-19T05:47:25;5.75;;;4.03;;
24559;SDS011;12727;49.934;8.656;2023-09-19T05:49:51;6.22;;;4.10;;
24559;SDS011;12727;49.934;8.656;2023-09-19T05:52:17;9.70;;;4.55;;
24559;SDS011;12727;49.934;8.656;2023-09-19T05:54:47;8.30;;;3.80;;
24559;SDS011;12727;49.934;8.656;2023-09-19T05:57:14;7.75;;;3.78;;
24559;SDS011;12727;49.934;8.656;2023-09-19T05:59:40;10.32;;;3.83;;
24559;SDS011;12727;49.934;8.656;2023-09-19T06:02:07;6.18;;;3.60;;
24559;SDS011;12727;49.934;8.656;2023-09-19T06:04:34;7.72;;;3.63;;
24559;SDS011;12727;49.934;8.656;2023-09-19T06:07:00;5.78;;;3.60;;
24559;SDS011;12727;49.934;8.656;2023-09-19T06:09:30;6.22;;;3.58;;
24559;SDS011;12727;49.934;8.656;2023-09-19T06:11:57;7.05;;;3.50;;
24559;SDS011;12727;49.934;8.656;2023-09-19T06:14:23;6.97;;;3.50;;
24559;SDS011;12727;49.934;8.656;2023-09-19T06:16:49;9.88;;;3.78;;
24559;SDS011;12727;49.934;8.656;2023-09-19T06:19:15;6.25;;;3.40;;
24559;SDS011;12727;49.934;8.656;2023-09-19T06:21:42;6.20;;;2.92;;
24559;SDS011;12727;49.934;8.656;2023-09-19T06:24:09;7.00;;;3.40;;
24559;SDS011;12727;49.934;8.656;2023-09-19T06:26:35;9.07;;;3.17;;
24559;SDS011;12727;49.934;8.656;2023-09-19T06:29:00;5.03;;;2.90;;
24559;SDS011;12727;49.934;8.656;2023-09-19T06:31:26;5.88;;;2.72;;
24559;SDS011;12727;49.934;8.656;2023-09-19T06:33:52;7.05;;;3.40;;
24559;SDS011;12727;49.934;8.656;2023-09-19T06:36:18;6.43;;;2.90;;
24559;SDS011;12727;49.934;8.656;2023-09-19T06:38:44;6.18;;;2.88;;
24559;SDS011;12727;49.934;8.656;2023-09-19T06:41:10;10.80;;;3.10;;
24559;SDS011;12727;49.934;8.656;2023-09-19T06:43:39;6.70;;;2.53;;
24559;SDS011;12727;49.934;8.656;2023-09-19T06:46:05;6.82;;;2.33;;
24559;SDS011;12727;49.934;8.656;2023-09-19T06:48:32;6.88;;;2.70;;
24559;SDS011;12727;49.934;8.656;2023-09-19T06:50:58;5.15;;;2.40;;
24559;SDS011;12727;49.934;8.656;2023-09-19T06:53:27;4.95;;;2.33;;
24559;SDS011;12727;49.934;8.656;2023-09-19T06:55:56;7.95;;;2.40;;
24559;SDS011;12727;49.934;8.656;2023-09-19T06:58:22;5.88;;;2.22;;
24559;SDS011;12727;49.934;8.656;2023-09-19T07:00:48;5.85;;;2.50;;
24559;SDS011;12727;49.934;8.656;2023-09-19T07:03:15;4.38;;;2.20;;
24559;SDS011;12727;49.934;8.656;2023-09-19T07:05:45;3.83;;;2.10;;
24559;SDS011;12727;49.934;8.656;2023-09-19T07:08:13;7.55;;;2.53;;
24559;SDS011;12727;49.934;8.656;2023-09-19T07:10:39;4.25;;;2.15;;
24559;SDS011;12727;49.934;8.656;2023-09-19T07:13:06;9.77;;;2.38;;
24559;SDS011;12727;49.934;8.656;2023-09-19T07:15:35;3.95;;;2.05;;
24559;SDS011;12727;49.934;8.656;2023-09-19T07:18:04;6.88;;;2.03;;
24559;SDS011;12727;49.934;8.656;2023-09-19T07:20:31;7.45;;;2.28;;
24559;SDS011;12727;49.934;8.656;2023-09-19T07:22:58;5.00;;;1.92;;
24559;SDS011;12727;49.934;8.656;2023-09-19T07:25:27;9.35;;;2.38;;
24559;SDS011;12727;49.934;8.656;2023-09-19T07:27:56;5.18;;;2.00;;
24559;SDS011;12727;49.934;8.656;2023-09-19T07:30:24;5.38;;;2.38;;
24559;SDS011;12727;49.934;8.656;2023-09-19T07:32:51;4.85;;;1.95;;
24559;SDS011;12727;49.934;8.656;2023-09-19T07:35:17;5.40;;;1.92;;
24559;SDS011;12727;49.934;8.656;2023-09-19T07:37:45;3.33;;;2.10;;
24559;SDS011;12727;49.934;8.656;2023-09-19T07:40:14;7.13;;;1.92;;
24559;SDS011;12727;49.934;8.656;2023-09-19T07:42:40;2.53;;;1.45;;
24559;SDS011;12727;49.934;8.656;2023-09-19T07:45:06;6.22;;;2.00;;
24559;SDS011;12727;49.934;8.656;2023-09-19T07:47:33;5.47;;;1.88;;
24559;SDS011;12727;49.934;8.656;2023-09-19T07:49:59;4.68;;;1.30;;
24559;SDS011;12727;49.934;8.656;2023-09-19T07:52:27;5.32;;;1.80;;
24559;SDS011;12727;49.934;8.656;2023-09-19T07:54:53;5.65;;;1.83;;
24559;SDS011;12727;49.934;8.656;2023-09-19T07:57:22;4.85;;;1.77;;
24559;SDS011;12727;49.934;8.656;2023-09-19T07:59:48;5.03;;;1.70;;
24559;SDS011;12727;49.934;8.656;2023-09-19T08:02:13;4.07;;;1.60;;
24559;SDS011;12727;49.934;8.656;2023-09-19T08:04:43;3.03;;;1.30;;
24559;SDS011;12727;49.934;8.656;2023-09-19T08:07:11;4.47;;;1.48;;
24559;SDS011;12727;49.934;8.656;2023-09-19T08:09:38;3.80;;;1.38;;
24559;SDS011;12727;49.934;8.656;2023-09-19T08:12:04;5.82;;;1.70;;
24559;SDS011;12727;49.934;8.656;2023-09-19T08:14:30;4.47;;;0.90;;
24559;SDS011;12727;49.934;8.656;2023-09-19T08:16:56;7.10;;;1.42;;
24559;SDS011;12727;49.934;8.656;2023-09-19T08:19:25;4.68;;;1.30;;
24559;SDS011;12727;49.934;8.656;2023-09-19T08:21:56;7.65;;;1.33;;
24559;SDS011;12727;49.934;8.656;2023-09-19T08:24:23;5.95;;;1.45;;
24559;SDS011;12727;49.934;8.656;2023-09-19T08:26:52;10.70;;;1.83;;
24559;SDS011;12727;49.934;8.656;2023-09-19T08:29:19;3.78;;;1.00;;
24559;SDS011;12727;49.934;8.656;2023-09-19T08:31:45;4.68;;;1.23;;
24559;SDS011;12727;49.934;8.656;2023-09-19T08:34:12;6.00;;;1.50;;
24559;SDS011;12727;49.934;8.656;2023-09-19T08:36:38;4.47;;;1.35;;
24559;SDS011;12727;49.934;8.656;2023-09-19T08:39:06;5.15;;;1.40;;
24559;SDS011;12727;49.934;8.656;2023-09-19T08:41:32;5.68;;;1.42;;
24559;SDS011;12727;49.934;8.656;2023-09-19T08:44:00;4.72;;;1.27;;
24559;SDS011;12727;49.934;8.656;2023-09-19T08:46:26;5.53;;;1.23;;
24559;SDS011;12727;49.934;8.656;2023-09-19T08:49:07;3.42;;;1.13;;
24559;SDS011;12727;49.934;8.656;2023-09-19T08:51:45;5.88;;;1.23;;
24559;SDS011;12727;49.934;8.656;2023-09-19T08:54:25;3.65;;;1.10;;
24559;SDS011;12727;49.934;8.656;2023-09-19T08:56:54;4.65;;;1.17;;
24559;SDS011;12727;49.934;8.656;2023-09-19T08:59:23;6.25;;;1.27;;
24559;SDS011;12727;49.934;8.656;2023-09-19T09:01:52;2.80;;;1.00;;
24559;SDS011;12727;49.934;8.656;2023-09-19T09:04:19;7.68;;;1.40;;
24559;SDS011;12727;49.934;8.656;2023-09-19T09:06:47;10.20;;;1.50;;
24559;SDS011;12727;49.934;8.656;2023-09-19T09:09:18;3.63;;;1.08;;
24559;SDS011;12727;49.934;8.656;2023-09-19T09:11:44;4.53;;;1.02;;
24559;SDS011;12727;49.934;8.656;2023-09-19T09:14:12;2.83;;;1.13;;
24559;SDS011;12727;49.934;8.656;2023-09-19T09:16:39;4.53;;;1.40;;
24559;SDS011;12727;49.934;8.656;2023-09-19T09:19:05;3.63;;;0.95;;
24559;SDS011;12727;49.934;8.656;2023-09-19T09:21:30;3.40;;;1.25;;
24559;SDS011;12727;49.934;8.656;2023-09-19T09:24:21;3.45;;;1.42;;
24559;SDS011;12727;49.934;8.656;2023-09-19T09:26:54;4.30;;;1.23;;
24559;SDS011;12727;49.934;8.656;2023-09-19T09:29:39;5.47;;;1.45;;
24559;SDS011;12727;49.934;8.656;2023-09-19T09:32:18;4.47;;;1.40;;
24559;SDS011;12727;49.934;8.656;2023-09-19T09:34:55;3.00;;;1.27;;
24559;SDS011;12727;49.934;8.656;2023-09-19T09:37:22;5.63;;;1.48;;
24559;SDS011;12727;49.934;8.656;2023-09-19T09:39:52;2.65;;;0.93;;
24559;SDS011;12727;49.934;8.656;2023-09-19T09:45:14;5.05;;;1.30;;
24559;SDS011;12727;49.934;8.656;2023-09-19T09:47:59;4.97;;;1.25;;
24559;SDS011;12727;49.934;8.656;2023-09-19T09:50:32;5.38;;;1.33;;
24559;SDS011;12727;49.934;8.656;2023-09-19T09:53:02;6.20;;;1.50;;
24559;SDS011;12727;49.934;8.656;2023-09-19T09:58:33;4.55;;;1.45;;
24559;SDS011;12727;49.934;8.656;2023-09-19T10:01:00;5.75;;;1.40;;
24559;SDS011;12727;49.934;8.656;2023-09-19T10:03:39;5.65;;;1.30;;
24559;SDS011;12727;49.934;8.656;2023-09-19T10:06:12;4.20;;;1.40;;
24559;SDS011;12727;49.934;8.656;2023-09-19T10:09:04;4.63;;;1.13;;
24559;SDS011;12727;49.934;8.656;2023-09-19T10:11:45;5.95;;;1.73;;
24559;SDS011;12727;49.934;8.656;2023-09-19T10:14:14;4.72;;;1.23;;
24559;SDS011;12727;49.934;8.656;2023-09-19T10:16:45;8.00;;;1.58;;
24559;SDS011;12727;49.934;8.656;2023-09-19T10:19:16;5.07;;;1.35;;
24559;SDS011;12727;49.934;8.656;2023-09-19T10:21:50;4.43;;;1.35;;
24559;SDS011;12727;49.934;8.656;2023-09-19T10:24:18;5.70;;;1.40;;
24559;SDS011;12727;49.934;8.656;2023-09-19T10:26:46;6.88;;;3.22;;
24559;SDS011;12727;49.934;8.656;2023-09-19T10:29:15;5.45;;;1.38;;
24559;SDS011;12727;49.934;8.656;2023-09-19T10:31:42;7.95;;;2.10;;
24559;SDS011;12727;49.934;8.656;2023-09-19T10:34:13;7.07;;;2.03;;
24559;SDS011;12727;49.934;8.656;2023-09-19T10:36:39;4.30;;;1.17;;
24559;SDS011;12727;49.934;8.656;2023-09-19T10:39:10;5.45;;;1.80;;
24559;SDS011;12727;49.934;8.656;2023-09-19T10:41:38;5.50;;;1.70;;
24559;SDS011;12727;49.934;8.656;2023-09-19T10:44:04;6.00;;;1.40;;
24559;SDS011;12727;49.934;8.656;2023-09-19T10:46:31;6.38;;;1.13;;
24559;SDS011;12727;49.934;8.656;2023-09-19T10:49:00;7.53;;;2.22;;
24559;SDS011;12727;49.934;8.656;2023-09-19T10:51:31;7.22;;;2.17;;
24559;SDS011;12727;49.934;8.656;2023-09-19T10:54:08;6.25;;;1.27;;
24559;SDS011;12727;49.934;8.656;2023-09-19T10:56:38;7.53;;;1.92;;
24559;SDS011;12727;49.934;8.656;2023-09-19T10:59:16;6.82;;;1.33;;
24559;SDS011;12727;49.934;8.656;2023-09-19T11:01:47;9.48;;;1.90;;
24559;SDS011;12727;49.934;8.656;2023-09-19T11:07:07;2.58;;;0.80;;
24559;SDS011;12727;49.934;8.656;2023-09-19T11:09:43;5.47;;;1.25;;
24559;SDS011;12727;49.934;8.656;2023-09-19T11:12:11;3.97;;;1.35;;
24559;SDS011;12727;49.934;8.656;2023-09-19T11:14:38;6.03;;;1.70;;
24559;SDS011;12727;49.934;8.656;2023-09-19T11:30:47;4.82;;;1.33;;
24559;SDS011;12727;49.934;8.656;2023-09-19T11:33:21;3.80;;;1.30;;
24559;SDS011;12727;49.934;8.656;2023-09-19T11:43:47;2.70;;;0.93;;
24559;SDS011;12727;49.934;8.656;2023-09-19T11:46:15;6.20;;;1.60;;
24559;SDS011;12727;49.934;8.656;2023-09-19T11:48:47;7.80;;;1.48;;
24559;SDS011;12727;49.934;8.656;2023-09-19T11:51:18;8.23;;;2.63;;
24559;SDS011;12727;49.934;8.656;2023-09-19T11:53:47;5.43;;;1.65;;
24559;SDS011;12727;49.934;8.656;2023-09-19T11:56:20;5.60;;;1.30;;
24559;SDS011;12727;49.934;8.656;2023-09-19T11:58:49;8.75;;;1.30;;
24559;SDS011;12727;49.934;8.656;2023-09-19T12:01:22;5.43;;;1.70;;
24559;SDS011;12727;49.934;8.656;2023-09-19T12:03:56;3.80;;;1.10;;
24559;SDS011;12727;49.934;8.656;2023-09-19T12:06:23;6.18;;;1.35;;
24559;SDS011;12727;49.934;8.656;2023-09-19T12:08:50;4.72;;;1.10;;
24559;SDS011;12727;49.934;8.656;2023-09-19T12:11:19;4.97;;;1.40;;
24559;SDS011;12727;49.934;8.656;2023-09-19T12:13:46;4.30;;;1.30;;
24559;SDS011;12727;49.934;8.656;2023-09-19T12:16:14;4.55;;;1.10;;
24559;SDS011;12727;49.934;8.656;2023-09-19T12:18:41;4.68;;;1.13;;
24559;SDS011;12727;49.934;8.656;2023-09-19T12:21:20;5.13;;;1.58;;
24559;SDS011;12727;49.934;8.656;2023-09-19T12:26:39;5.47;;;1.17;;
24559;SDS011;12727;49.934;8.656;2023-09-19T12:29:16;1.63;;;0.50;;
24559;SDS011;12727;49.934;8.656;2023-09-19T12:34:27;3.50;;;1.13;;
24559;SDS011;12727;49.934;8.656;2023-09-19T12:37:03;6.18;;;1.30;;
24559;SDS011;12727;49.934;8.656;2023-09-19T12:39:46;4.80;;;1.17;;
24559;SDS011;12727;49.934;8.656;2023-09-19T12:42:25;8.25;;;1.50;;
24559;SDS011;12727;49.934;8.656;2023-09-19T12:44:58;4.55;;;1.00;;
24559;SDS011;12727;49.934;8.656;2023-09-19T12:47:26;6.50;;;1.17;;
24559;SDS011;12727;49.934;8.656;2023-09-19T12:50:07;4.53;;;1.30;;
24559;SDS011;12727;49.934;8.656;2023-09-19T12:52:42;6.65;;;1.30;;
24559;SDS011;12727;49.934;8.656;2023-09-19T12:55:27;6.75;;;1.10;;
24559;SDS011;12727;49.934;8.656;2023-09-19T13:00:38;4.13;;;1.13;;
24559;SDS011;12727;49.934;8.656;2023-09-19T13:03:09;5.45;;;1.40;;
24559;SDS011;12727;49.934;8.656;2023-09-19T13:05:47;4.15;;;1.15;;
24559;SDS011;12727;49.934;8.656;2023-09-19T13:08:25;3.80;;;0.70;;
24559;SDS011;12727;49.934;8.656;2023-09-19T13:13:38;4.93;;;1.13;;
24559;SDS011;12727;49.934;8.656;2023-09-19T13:16:05;4.88;;;1.00;;
24559;SDS011;12727;49.934;8.656;2023-09-19T13:21:10;3.08;;;0.90;;
24559;SDS011;12727;49.934;8.656;2023-09-19T13:23:42;7.95;;;1.60;;
24559;SDS011;12727;49.934;8.656;2023-09-19T13:26:09;3.42;;;1.10;;
24559;SDS011;12727;49.934;8.656;2023-09-19T13:28:35;5.25;;;1.30;;
24559;SDS011;12727;49.934;8.656;2023-09-19T13:31:02;3.10;;;1.05;;
24559;SDS011;12727;49.934;8.656;2023-09-19T13:33:28;4.30;;;1.08;;
24559;SDS011;12727;49.934;8.656;2023-09-19T13:35:53;2.95;;;1.00;;
24559;SDS011;12727;49.934;8.656;2023-09-19T13:38:20;4.30;;;1.15;;
24559;SDS011;12727;49.934;8.656;2023-09-19T13:40:47;2.90;;;1.10;;
24559;SDS011;12727;49.934;8.656;2023-09-19T13:43:12;4.93;;;1.30;;
24559;SDS011;12727;49.934;8.656;2023-09-19T13:45:38;8.63;;;1.45;;
24559;SDS011;12727;49.934;8.656;2023-09-19T13:48:07;4.57;;;1.00;;
24559;SDS011;12727;49.934;8.656;2023-09-19T13:50:33;4.22;;;1.10;;
24559;SDS011;12727;49.934;8.656;2023-09-19T13:53:01;3.22;;;1.10;;
24559;SDS011;12727;49.934;8.656;2023-09-19T13:55:27;3.95;;;1.13;;
24559;SDS011;12727;49.934;8.656;2023-09-19T13:57:53;5.18;;;0.90;;
24559;SDS011;12727;49.934;8.656;2023-09-19T14:00:20;2.40;;;0.65;;
24559;SDS011;12727;49.934;8.656;2023-09-19T14:02:49;1.75;;;0.70;;
24559;SDS011;12727;49.934;8.656;2023-09-19T14:05:15;5.25;;;0.60;;
24559;SDS011;12727;49.934;8.656;2023-09-19T14:07:44;2.38;;;1.05;;
24559;SDS011;12727;49.934;8.656;2023-09-19T14:10:11;2.70;;;1.00;;
24559;SDS011;12727;49.934;8.656;2023-09-19T14:12:39;4.82;;;1.33;;
24559;SDS011;12727;49.934;8.656;2023-09-19T14:15:08;3.70;;;0.90;;
24559;SDS011;12727;49.934;8.656;2023-09-19T14:17:35;1.90;;;0.55;;
24559;SDS011;12727;49.934;8.656;2023-09-19T14:20:01;6.00;;;1.10;;
24559;SDS011;12727;49.934;8.656;2023-09-19T14:22:26;5.45;;;1.10;;
24559;SDS011;12727;49.934;8.656;2023-09-19T14:24:52;3.47;;;0.90;;
24559;SDS011;12727;49.934;8.656;2023-09-19T14:27:18;2.22;;;1.10;;
24559;SDS011;12727;49.934;8.656;2023-09-19T14:29:44;3.35;;;1.00;;
24559;SDS011;12727;49.934;8.656;2023-09-19T14:32:10;3.42;;;1.30;;
24559;SDS011;12727;49.934;8.656;2023-09-19T14:34:36;3.83;;;1.10;;
24559;SDS011;12727;49.934;8.656;2023-09-19T14:37:06;3.95;;;1.33;;
24559;SDS011;12727;49.934;8.656;2023-09-19T14:39:32;3.55;;;0.65;;
24559;SDS011;12727;49.934;8.656;2023-09-19T14:41:58;3.15;;;0.90;;
24559;SDS011;12727;49.934;8.656;2023-09-19T14:44:23;2.85;;;1.27;;
24559;SDS011;12727;49.934;8.656;2023-09-19T14:46:49;2.55;;;0.80;;
24559;SDS011;12727;49.934;8.656;2023-09-19T14:49:15;2.17;;;1.08;;
24559;SDS011;12727;49.934;8.656;2023-09-19T14:51:41;4.78;;;1.08;;
24559;SDS011;12727;49.934;8.656;2023-09-19T14:54:12;4.85;;;1.27;;
24559;SDS011;12727;49.934;8.656;2023-09-19T14:56:38;3.45;;;1.00;;
24559;SDS011;12727;49.934;8.656;2023-09-19T14:59:04;2.95;;;1.48;;
24559;SDS011;12727;49.934;8.656;2023-09-19T15:01:32;5.07;;;1.10;;
24559;SDS011;12727;49.934;8.656;2023-09-19T15:03:58;2.78;;;0.93;;
24559;SDS011;12727;49.934;8.656;2023-09-19T15:06:25;3.25;;;0.88;;
24559;SDS011;12727;49.934;8.656;2023-09-19T15:08:51;4.00;;;0.93;;
24559;SDS011;12727;49.934;8.656;2023-09-19T15:11:17;4.00;;;1.20;;
24559;SDS011;12727;49.934;8.656;2023-09-19T15:13:43;2.75;;;0.80;;
24559;SDS011;12727;49.934;8.656;2023-09-19T15:16:10;2.83;;;0.80;;
24559;SDS011;12727;49.934;8.656;2023-09-19T15:18:37;3.13;;;0.93;;
24559;SDS011;12727;49.934;8.656;2023-09-19T15:21:14;2.53;;;1.00;;
24559;SDS011;12727;49.934;8.656;2023-09-19T15:23:42;3.17;;;1.05;;
24559;SDS011;12727;49.934;8.656;2023-09-19T15:26:10;4.07;;;1.30;;
24559;SDS011;12727;49.934;8.656;2023-09-19T15:28:36;4.55;;;0.98;;
24559;SDS011;12727;49.934;8.656;2023-09-19T15:31:08;2.95;;;0.95;;
24559;SDS011;12727;49.934;8.656;2023-09-19T15:33:35;3.38;;;1.08;;
24559;SDS011;12727;49.934;8.656;2023-09-19T15:38:30;1.83;;;0.73;;
24559;SDS011;12727;49.934;8.656;2023-09-19T15:40:57;2.97;;;0.98;;
24559;SDS011;12727;49.934;8.656;2023-09-19T15:43:24;2.08;;;0.57;;
24559;SDS011;12727;49.934;8.656;2023-09-19T15:45:49;2.75;;;0.90;;
24559;SDS011;12727;49.934;8.656;2023-09-19T15:48:15;5.75;;;1.13;;
24559;SDS011;12727;49.934;8.656;2023-09-19T15:50:46;3.85;;;1.08;;
24559;SDS011;12727;49.934;8.656;2023-09-19T15:53:12;4.75;;;0.93;;